20 de maio de 2022

Tempo Código Clima Temp. Visão Nuvens Vento METAR/SPECI
12:00
V
19 °C 48 km - 130°   130° 15 kt METAR CYUL 201600Z 13015KT 30SM FEW040 FEW130 SCT250 19/11 A2983 RMK SC1AC1CI3 SC TR AC TR SLP105 DENSITY ALT 700FT
11:00
V
16 °C 48 km 23.000 ft 110°   110° 9 kt METAR CYUL 201500Z 11009KT 30SM FEW030 FEW120 BKN230 16/11 A2988 RMK CF1AC2CI5 CF TR SLP121 DENSITY ALT 400FT
10:00
V
14 °C 48 km 12.000 ft 120°   120° 10 kt METAR CYUL 201400Z 12010KT 30SM FEW016 BKN120 BKN250 14/11 A2988 RMK CF2AC4CI1 CI TR SLP120 DENSITY ALT 200FT
09:00
V
13 °C 24 km 12.000 ft 150°   150° 9 kt METAR CYUL 201300Z 15009KT 15SM FEW015 OVC120 13/11 A2987 RMK SC2AC6 SLP119
08:00
V
12 °C 24 km 13.000 ft 120°   120° 7 kt METAR CYUL 201200Z 12007KT 15SM FEW025 BKN130 OVC250 12/10 A2986 RMK CF1AC7CI1 CF TR SLP116
07:00
V
11 °C 48 km 25.000 ft 130°   130° 6 kt METAR CYUL 201100Z 13006KT 30SM FEW020 SCT140 OVC250 11/10 A2986 RMK CF1AC4CS4 CF TR CI ASOCTD SLP116
06:00
V
9 °C 24 km 25.000 ft 190°   190° 3 kt METAR CYUL 201000Z 19003KT 140V200 15SM FEW025 FEW180 OVC250 09/08 A2986 RMK CF1AC1CS7 CF TR CI ASOCTD SLP114
05:00
V
10 °C 24 km 25.000 ft Var   Var 2 kt METAR CYUL 200900Z VRB02KT 15SM FEW010 FEW045 SCT180 BKN250 10/09 A2983 RMK SF1SC1AC2CI2 SF TR SLP103
04:00
V
10 °C 24 km - 270°   270° 4 kt METAR CYUL 200800Z 27004KT 15SM FEW008 SCT025 10/09 A2983 RMK SF2SC2 SLP105
03:27
M
10 °C 24 km 2.200 ft 230°   230° 6 kt METAR CYUL 200727Z 23006KT 15SM FEW008 BKN022 OVC045 10/10 A2983 RMK SF2SC5SC1 PRESRR SLP104
03:00
M
11 °C 24 km 2.200 ft 210°   210° 2 kt METAR CYUL 200700Z 21002KT 15SM BKN022 OVC045 11/10 A2978 RMK SC6SC2 SLP089
02:00
M
12 °C 24 km 2.500 ft 240°   240° 3 kt METAR CYUL 200600Z 24003KT 190V260 15SM SCT015 BKN025 OVC050 12/11 A2980 RMK SC3SC3SC2 SLP094
01:00
V
11 °C 24 km 5.000 ft 240°   240° 2 kt METAR CYUL 200500Z 24002KT 15SM SCT026 OVC050 11/10 A2979 RMK SC3SC5 SLP092
00:00
V
11 °C 24 km 5.300 ft 230°   230° 2 kt METAR CYUL 200400Z 23002KT 15SM FEW030 OVC053 11/10 A2978 RMK SC2SC6 SLP089

19 de maio de 2022

Tempo Código Clima Temp. Visão Nuvens Vento METAR/SPECI
23:00
V
11 °C 24 km 4.600 ft 320°   320° 2 kt METAR CYUL 200300Z 32002KT 15SM OVC046 11/10 A2978 RMK SC8 SLP086
22:28
V
11 °C 24 km 4.600 ft 360°   360° 2 kt METAR CYUL 200228Z 36002KT 15SM FEW010 OVC046 11/10 A2976 RMK SF1SC8 SF TR SLP082
22:00
V
12 °C 24 km 4.400 ft Var   000° 0 kt METAR CYUL 200200Z 00000KT 15SM -RA FEW010 OVC044 12/10 A2977 RMK SF1SC8 SF TR SLP083
21:00
V
12 °C 24 km 3.500 ft 320°   320° 3 kt METAR CYUL 200100Z 32003KT 15SM FEW020 OVC035 12/10 A2973 RMK SC1SC7 PRESRR SLP072
20:00
V
12 °C 24 km 3.500 ft Var   Var 2 kt METAR CYUL 200000Z VRB02KT 15SM FEW024 OVC035 12/10 A2971 RMK SC1SC7 PRESRR SLP063
19:00
M
12 °C 24 km 2.100 ft 050°   050° 4 kt METAR CYUL 192300Z 05004KT 15SM FEW016 OVC021 12/10 A2968 RMK SC1SC7 SLP055
18:00
M
12 °C 24 km 2.000 ft 100°   100° 2 kt METAR CYUL 192200Z 10002KT 15SM FEW014 OVC020 12/09 A2968 RMK SC2SC6 SLP054
17:00
M
12 °C 24 km 1.800 ft 080°   080° 5 kt METAR CYUL 192100Z 08005KT 060V120 15SM SCT013 BKN018 OVC025 12/10 A2967 RMK SC3SC4SC1 SLP049
16:41
M
11 °C 24 km 2.000 ft 090°   090° 7 kt METAR CYUL 192041Z 09007KT 15SM SCT013 OVC020 11/10 A2966 RMK SC4SC4 SLP047
16:00
M
12 °C 24 km 2.000 ft 100°   100° 6 kt METAR CYUL 192000Z 10006KT 050V120 15SM -RA SCT014 OVC020 12/10 A2966 RMK SC3SC5 SLP047
15:00
M
11 °C 24 km 2.000 ft 090°   090° 4 kt METAR CYUL 191900Z 09004KT 080V150 15SM RA FEW009 SCT012 OVC020 11/09 A2967 RMK SF1SC3SC5 SF TR SLP049
14:00
V
11 °C 24 km 3.300 ft 120°   120° 8 kt METAR CYUL 191800Z 12008KT 15SM -RA FEW014 OVC033 11/09 A2967 RMK SF1SC8 SF TR SLP049
13:00
V
11 °C 24 km 3.000 ft 130°   130° 12 kt METAR CYUL 191700Z 13012KT 15SM -RA BKN030 OVC050 11/09 A2967 RMK SC6SC2 SLP051
12:00
V
13 °C 24 km 5.500 ft 130°   130° 10 kt METAR CYUL 191600Z 13010KT 15SM -RA FEW042 BKN055 OVC078 13/09 A2969 RMK SC1SC4AC3 SLP056 DENSITY ALT 200FT
11:47
V
13 °C 24 km 5.500 ft 140°   140° 10 kt METAR CYUL 191547Z 14010KT 15SM -RA BKN055 OVC078 13/08 A2969 RMK SC5AC3 SLP058 DENSITY ALT 200FT
11:00
V
13 °C 24 km 7.800 ft 160°   160° 11 kt METAR CYUL 191500Z 16011KT 15SM SCT060 OVC078 13/06 A2969 RMK SC3AC5 SLP057 DENSITY ALT 200FT
10:00
V
13 °C 48 km 7.500 ft 150°   150° 9 kt METAR CYUL 191400Z 15009KT 30SM OVC075 13/06 A2970 RMK AC8 SLP061
09:00
V
11 °C 48 km 7.200 ft 110°   110° 7 kt METAR CYUL 191300Z 11007KT 30SM OVC072 11/06 A2973 RMK AC8 SLP069
08:00
V
11 °C 48 km 7.000 ft 120°   120° 5 kt METAR CYUL 191200Z 12005KT 30SM BKN070 OVC240 11/05 A2974 RMK AC7CI1 SLP074
07:00
V
10 °C 48 km 15.000 ft 090°   090° 6 kt METAR CYUL 191100Z 09006KT 30SM SCT075 BKN150 BKN250 10/06 A2975 RMK AC3AC4CI1 CI TR SLP077
06:00
V
9 °C 24 km 16.000 ft 100°   100° 5 kt METAR CYUL 191000Z 10005KT 15SM FEW140 BKN160 BKN250 09/04 A2976 RMK AC2AC5CI1 CI TR SLP079
05:00
V
8 °C 24 km 25.000 ft 110°   110° 5 kt METAR CYUL 190900Z 11005KT 15SM FEW150 SCT180 BKN250 08/04 A2976 RMK AC1AC4CI1 AC TR SLP082
04:00
V
8 °C 24 km 19.000 ft Var   Var 2 kt METAR CYUL 190800Z VRB02KT 15SM SCT170 BKN190 08/04 A2978 RMK AC2AC3 SLP086
03:00
V
9 °C 24 km 20.000 ft 160°   160° 3 kt METAR CYUL 190700Z 16003KT 15SM BKN200 09/04 A2980 RMK CC6 SLP095
02:00
V
10 °C 24 km 20.000 ft 170°   170° 5 kt METAR CYUL 190600Z 17005KT 15SM BKN200 10/05 A2982 RMK CC7 SLP101
01:00
V
11 °C 24 km 20.000 ft 230°   230° 3 kt METAR CYUL 190500Z 23003KT 15SM BKN200 11/02 A2984 RMK CC5 SLP106
00:00
V
11 °C 24 km - 240°   240° 6 kt METAR CYUL 190400Z 24006KT 15SM FEW220 11/03 A2984 RMK CC1 SLP106

18 de maio de 2022

Tempo Código Clima Temp. Visão Nuvens Vento METAR/SPECI
23:00
V
13 °C 24 km - 210°   210° 8 kt METAR CYUL 190300Z 21008KT 15SM SKC 13/05 A2984 RMK SLP106
22:00
V
13 °C 24 km - 220°   220° 8 kt METAR CYUL 190200Z 22008KT 15SM SKC 13/06 A2984 RMK SLP107
21:00
V
14 °C 24 km - 220°   220° 8 kt METAR CYUL 190100Z 22008KT 15SM FEW250 14/05 A2983 RMK CI1 CI TR SLP104 DENSITY ALT 200FT
20:00
V
15 °C 48 km - 220°   220° 9 kt METAR CYUL 190000Z 22009KT 30SM FEW250 15/04 A2983 RMK CI2 SLP105 DENSITY ALT 300FT
19:00
V
16 °C 48 km - 220°   220° 12 kt METAR CYUL 182300Z 22012KT 30SM SCT250 16/03 A2984 RMK CI3 SLP108 DENSITY ALT 400FT
18:00
V
16 °C 48 km - 220°   220° 16 22 kt METAR CYUL 182200Z 22016G22KT 30SM FEW250 16/03 A2986 RMK CI2 SLP114 DENSITY ALT 400FT
17:00
V
17 °C 48 km - 230°   230° 11 20 kt METAR CYUL 182100Z 23011G20KT 30SM FEW250 17/04 A2987 RMK CI1 SLP118 DENSITY ALT 500FT
16:00
V
16 °C 48 km - 200°   200° 19 kt METAR CYUL 182000Z 20019KT 30SM FEW250 16/03 A2989 RMK CI1 SLP124 DENSITY ALT 400FT
15:00
V
16 °C 48 km - 250°   250° 10 18 kt METAR CYUL 181900Z 25010G18KT 30SM FEW250 16/00 A2991 RMK CI1 SLP131 DENSITY ALT 300FT
14:00
V
15 °C 48 km - 280°   280° 11 18 kt METAR CYUL 181800Z 28011G18KT 210V300 30SM FEW250 15/M00 A2993 RMK CI1 SLP137 DENSITY ALT 200FT
13:00
V
14 °C 48 km - 250°   250° 13 kt METAR CYUL 181700Z 25013KT 200V280 30SM FEW250 14/M02 A2995 RMK CI1 CI TR SLP146
12:00
V
13 °C 48 km - 290°   290° 9 19 kt METAR CYUL 181600Z 29009G19KT 220V310 30SM FEW250 13/M01 A2997 RMK CI1 CI TR SLP153
11:00
V
12 °C 48 km - 240°   240° 10 kt METAR CYUL 181500Z 24010KT 220V290 30SM FEW250 12/M01 A2999 RMK CI1 CI TR SLP159
Dados mais antigos

Baixe nosso aplicativo

Fácil acesso a todas as condições meteorológicas da aviação no seu celular e no seu tablet.
Com muitos recursos não disponíveis no site, como suporte offline e uma lista pessoal de aeroportos.

Nós e terceiros acompanhamos seu comportamento na internet em nosso site com cookies. Se você continuar, nós assumimos que você concorda com nossa política de cookies. Saiba mais